createdAt,value
2023-03-31T00:03:25.083Z,10.87
2023-03-31T00:08:22.068Z,10.95
2023-03-31T00:13:19.695Z,10.88
2023-03-31T00:18:16.595Z,10.53
2023-03-31T00:23:14.020Z,10.05
2023-03-31T00:28:10.989Z,10.02
2023-03-31T00:33:08.903Z,10.40
2023-03-31T00:38:08.346Z,10.31
2023-03-31T00:43:24.395Z,10.57
2023-03-31T00:48:23.518Z,10.55
2023-03-31T00:53:25.570Z,10.49
2023-03-31T00:58:27.554Z,10.48
2023-03-31T01:03:25.908Z,10.52
2023-03-31T01:08:26.550Z,10.71
2023-03-31T01:13:24.311Z,10.69
2023-03-31T01:18:22.154Z,10.76
2023-03-31T01:23:49.889Z,10.91
2023-03-31T01:28:53.967Z,10.83
2023-03-31T01:34:21.998Z,10.69
2023-03-31T01:39:50.505Z,10.82
2023-03-31T01:44:58.864Z,10.94
2023-03-31T01:50:02.699Z,11.02
2023-03-31T01:55:06.635Z,10.89
2023-03-31T02:00:09.015Z,11.08
2023-03-31T02:05:16.787Z,11.19
2023-03-31T02:10:16.922Z,11.26
2023-03-31T02:15:18.908Z,10.93
2023-03-31T02:20:20.173Z,11.22
2023-03-31T02:25:21.977Z,11.22
2023-03-31T02:30:19.659Z,11.38
2023-03-31T02:35:19.526Z,11.09
2023-03-31T02:40:18.628Z,11.50
2023-03-31T02:45:42.544Z,11.57
2023-03-31T02:50:53.842Z,11.42
2023-03-31T02:56:07.616Z,11.74
2023-03-31T03:01:18.118Z,11.76
2023-03-31T03:06:29.587Z,11.76
2023-03-31T03:12:01.607Z,11.63
2023-03-31T03:17:01.629Z,11.71
2023-03-31T03:21:58.830Z,11.58
2023-03-31T03:26:56.046Z,11.69
2023-03-31T03:31:53.190Z,11.51
2023-03-31T03:36:51.358Z,11.60
2023-03-31T03:41:48.148Z,11.38
2023-03-31T03:46:45.359Z,11.74
2023-03-31T03:51:42.308Z,11.80
2023-03-31T03:56:40.060Z,11.85
2023-03-31T04:01:37.028Z,11.84
2023-03-31T04:06:33.970Z,11.72
2023-03-31T04:11:31.092Z,11.64
2023-03-31T04:16:28.893Z,11.51
2023-03-31T04:21:26.172Z,11.28
2023-03-31T04:26:30.206Z,11.29
2023-03-31T04:31:30.027Z,11.20
2023-03-31T04:36:28.421Z,11.22
2023-03-31T04:41:27.320Z,10.93
2023-03-31T04:46:24.906Z,11.15
2023-03-31T04:51:21.792Z,11.12
2023-03-31T04:56:19.316Z,11.25
2023-03-31T05:01:19.572Z,11.28
2023-03-31T05:06:17.342Z,11.17
2023-03-31T05:11:14.084Z,10.71
2023-03-31T05:16:13.816Z,11.29
2023-03-31T05:21:12.204Z,11.32
2023-03-31T05:26:09.842Z,11.03
2023-03-31T05:31:08.360Z,11.53
2023-03-31T05:36:06.891Z,11.65
2023-03-31T05:41:03.831Z,11.65
2023-03-31T05:46:00.757Z,11.84
2023-03-31T05:50:57.982Z,11.61
2023-03-31T05:55:59.704Z,11.61
2023-03-31T06:01:05.895Z,12.04
2023-03-31T06:06:04.680Z,12.12
2023-03-31T06:11:06.798Z,12.32
2023-03-31T06:16:04.653Z,12.48
2023-03-31T06:21:02.164Z,12.27
2023-03-31T06:26:02.352Z,12.05
2023-03-31T06:31:03.863Z,11.86
2023-03-31T06:36:12.876Z,12.02
2023-03-31T06:41:14.031Z,11.68
2023-03-31T06:46:12.087Z,11.39
2023-03-31T06:51:13.472Z,11.20
2023-03-31T06:56:11.162Z,11.23
2023-03-31T07:01:11.282Z,11.42
2023-03-31T07:06:08.765Z,11.10
2023-03-31T07:11:06.038Z,11.68
2023-03-31T07:16:04.700Z,11.59
2023-03-31T07:21:01.673Z,11.45
2023-03-31T07:26:01.824Z,11.29
2023-03-31T07:30:59.232Z,11.44
2023-03-31T07:36:10.763Z,11.72
2023-03-31T07:41:17.875Z,11.61
2023-03-31T07:46:17.033Z,11.78
2023-03-31T07:51:15.903Z,12.15
2023-03-31T07:56:13.296Z,11.95
2023-03-31T08:01:11.757Z,12.43
2023-03-31T08:06:09.149Z,12.70
2023-03-31T08:11:12.856Z,13.03
2023-03-31T08:16:10.565Z,13.44
2023-03-31T08:21:11.027Z,14.19
2023-03-31T08:26:16.429Z,15.65
2023-03-31T08:31:16.710Z,17.24
2023-03-31T08:36:13.899Z,17.72
2023-03-31T08:41:35.138Z,18.20
2023-03-31T08:46:35.046Z,18.79
2023-03-31T08:51:38.075Z,19.10
2023-03-31T08:56:40.109Z,19.33
2023-03-31T09:01:55.414Z,20.04
2023-03-31T09:07:01.934Z,20.92
2023-03-31T09:12:07.003Z,21.70
2023-03-31T09:17:18.118Z,23.06
2023-03-31T09:22:20.159Z,23.12
2023-03-31T09:27:19.772Z,23.10
2023-03-31T09:32:18.697Z,23.05
2023-03-31T09:37:20.241Z,23.46
2023-03-31T09:42:21.370Z,23.75
2023-03-31T09:47:28.960Z,24.03
2023-03-31T09:52:29.808Z,24.20
2023-03-31T09:57:31.984Z,24.67
2023-03-31T10:02:36.886Z,25.49
2023-03-31T10:07:34.997Z,26.48
2023-03-31T10:12:32.930Z,26.88
2023-03-31T10:17:34.004Z,27.17
2023-03-31T10:22:44.023Z,26.67
2023-03-31T10:27:43.251Z,26.21
2023-03-31T10:32:42.743Z,26.14
2023-03-31T10:37:40.397Z,25.37
2023-03-31T10:42:39.709Z,24.61
2023-03-31T10:47:40.016Z,24.40
2023-03-31T10:52:44.898Z,23.92
2023-03-31T10:57:50.436Z,24.25
2023-03-31T11:03:14.037Z,23.79
2023-03-31T11:08:25.274Z,24.28
2023-03-31T11:13:29.053Z,24.13
2023-03-31T11:18:36.990Z,24.27
2023-03-31T11:23:42.276Z,24.02
2023-03-31T11:28:51.886Z,23.63
2023-03-31T11:34:01.449Z,23.15
2023-03-31T11:39:18.372Z,23.12
2023-03-31T11:44:18.465Z,22.72
2023-03-31T11:49:20.791Z,22.63
2023-03-31T11:54:24.903Z,22.57
2023-03-31T11:59:26.887Z,22.29
2023-03-31T12:04:37.260Z,22.59
2023-03-31T12:09:44.220Z,22.89
2023-03-31T12:14:49.981Z,22.89
2023-03-31T12:19:50.844Z,23.07
2023-03-31T12:24:51.427Z,23.13
2023-03-31T12:29:56.170Z,23.09
2023-03-31T12:34:57.071Z,23.38
2023-03-31T12:40:08.797Z,23.53
2023-03-31T12:45:17.532Z,23.63
2023-03-31T12:50:36.647Z,23.43
2023-03-31T12:55:51.643Z,23.12
2023-03-31T13:01:04.912Z,22.48
2023-03-31T13:06:04.380Z,22.90
2023-03-31T13:11:01.414Z,22.52
2023-03-31T13:16:01.156Z,22.30
2023-03-31T13:21:00.252Z,22.38
2023-03-31T13:25:59.644Z,22.09
2023-03-31T13:31:01.290Z,22.39
2023-03-31T13:36:25.079Z,22.12
2023-03-31T13:41:37.148Z,21.95
2023-03-31T13:46:51.746Z,21.92
2023-03-31T13:51:57.121Z,21.31
2023-03-31T13:57:17.973Z,21.75
2023-03-31T14:02:44.848Z,21.71
2023-03-31T14:07:46.400Z,21.80
2023-03-31T14:12:43.911Z,21.73
2023-03-31T14:17:44.407Z,21.71
2023-03-31T14:22:48.595Z,21.59
2023-03-31T14:28:00.322Z,21.60
2023-03-31T14:33:09.231Z,21.50
2023-03-31T14:38:13.789Z,21.50
2023-03-31T14:43:18.808Z,21.38
2023-03-31T14:48:16.131Z,21.43
2023-03-31T14:53:16.833Z,21.26
2023-03-31T14:58:23.114Z,20.67
2023-03-31T15:03:20.193Z,20.65
2023-03-31T15:08:20.161Z,20.82
2023-03-31T15:13:24.395Z,20.78
2023-03-31T15:18:21.227Z,20.59
2023-03-31T15:23:24.384Z,20.87
2023-03-31T15:28:23.366Z,20.60
2023-03-31T15:33:24.907Z,21.09
2023-03-31T15:38:25.281Z,21.11
2023-03-31T15:43:30.089Z,20.80
2023-03-31T15:48:29.110Z,21.14
2023-03-31T15:53:30.206Z,21.07
2023-03-31T15:58:57.574Z,20.99
2023-03-31T16:03:55.298Z,20.78
2023-03-31T16:08:57.510Z,20.68
2023-03-31T16:14:02.254Z,20.55
2023-03-31T16:19:04.063Z,20.30
2023-03-31T16:24:01.159Z,19.85
2023-03-31T16:29:00.459Z,19.83
2023-03-31T16:33:57.713Z,19.64
2023-03-31T16:38:59.684Z,19.44
2023-03-31T16:43:58.781Z,19.10
2023-03-31T16:48:55.979Z,19.01
2023-03-31T16:53:52.815Z,18.77
2023-03-31T16:58:50.686Z,18.53
2023-03-31T17:03:50.992Z,18.13
2023-03-31T17:08:50.914Z,18.13
2023-03-31T17:13:48.190Z,17.61
2023-03-31T17:18:45.416Z,17.63
2023-03-31T17:23:43.142Z,17.17
2023-03-31T17:28:41.054Z,17.20
2023-03-31T17:33:41.293Z,17.13
2023-03-31T17:38:39.084Z,17.11
2023-03-31T17:43:37.741Z,16.94
2023-03-31T17:48:34.693Z,16.68
2023-03-31T17:53:31.688Z,16.80
2023-03-31T17:58:29.473Z,16.67
2023-03-31T18:03:28.829Z,16.28
2023-03-31T18:08:25.779Z,15.79
2023-03-31T18:13:23.710Z,16.37
2023-03-31T18:18:22.628Z,16.16
2023-03-31T18:23:20.210Z,16.08
2023-03-31T18:28:17.779Z,16.08
2023-03-31T18:33:14.892Z,16.09
2023-03-31T18:38:11.992Z,15.99
2023-03-31T18:43:11.126Z,15.97
2023-03-31T18:48:10.201Z,15.90
2023-03-31T18:53:07.145Z,15.11
2023-03-31T18:58:04.052Z,15.73
2023-03-31T19:03:02.131Z,15.29
2023-03-31T19:07:59.111Z,15.56
2023-03-31T19:12:56.510Z,15.56
2023-03-31T19:17:53.547Z,15.50
2023-03-31T19:22:51.873Z,15.38
2023-03-31T19:27:49.774Z,15.38
2023-03-31T19:32:48.231Z,14.61
2023-03-31T19:37:45.189Z,15.14
2023-03-31T19:42:43.619Z,15.22
2023-03-31T19:47:40.544Z,15.00
2023-03-31T19:52:37.374Z,15.02
2023-03-31T19:57:34.219Z,14.51
2023-03-31T20:02:32.062Z,14.73
2023-03-31T20:07:31.955Z,14.89
2023-03-31T20:12:29.936Z,14.70
2023-03-31T20:17:26.968Z,14.67
2023-03-31T20:22:25.739Z,14.20
2023-03-31T20:27:25.651Z,14.72
2023-03-31T20:32:25.054Z,14.79
2023-03-31T20:37:21.937Z,14.49
2023-03-31T20:42:20.149Z,14.64
2023-03-31T20:47:16.975Z,14.31
2023-03-31T20:52:13.792Z,14.38
2023-03-31T20:57:11.097Z,14.47
2023-03-31T21:02:11.478Z,14.42
2023-03-31T21:07:08.202Z,14.03
2023-03-31T21:12:05.736Z,14.29
2023-03-31T21:17:02.820Z,14.23
2023-03-31T21:22:00.483Z,13.38
2023-03-31T21:26:57.214Z,14.09
2023-03-31T21:31:54.003Z,13.80
2023-03-31T21:36:50.798Z,13.93
2023-03-31T21:41:48.281Z,13.87
2023-03-31T21:46:47.315Z,13.63
2023-03-31T21:51:44.217Z,13.65
2023-03-31T21:56:40.969Z,13.36
2023-03-31T22:01:38.589Z,13.44
2023-03-31T22:06:37.047Z,13.49
2023-03-31T22:11:33.858Z,13.10
2023-03-31T22:16:30.941Z,13.32
2023-03-31T22:21:28.575Z,13.23
2023-03-31T22:26:26.483Z,13.00
2023-03-31T22:31:23.832Z,13.32
2023-03-31T22:36:21.191Z,13.23
2023-03-31T22:41:18.734Z,13.38
2023-03-31T22:46:15.893Z,13.56
2023-03-31T22:51:13.840Z,13.55
2023-03-31T22:56:11.952Z,13.63
2023-03-31T23:01:14.844Z,13.34
2023-03-31T23:06:12.281Z,13.34
2023-03-31T23:11:11.945Z,13.24
2023-03-31T23:16:12.792Z,13.44
2023-03-31T23:21:10.261Z,13.40
2023-03-31T23:26:07.086Z,13.39
2023-03-31T23:31:04.358Z,13.37
2023-03-31T23:36:03.961Z,13.31
2023-03-31T23:41:02.953Z,13.38
2023-03-31T23:46:01.605Z,13.49
2023-03-31T23:50:58.408Z,13.58
2023-03-31T23:55:57.734Z,13.37
